Time;durP1;ratioP1;P1;durP2;ratioP2;P2;SDS_P1;SDS_P2;PMS_P1;PMS_P2;Temp;Humidity;BMP_temperature;BMP_pressure;BME280_temperature;BME280_humidity;BME280_pressure;Samples;Min_cycle;Max_cycle;Signal;HPM_P1;HPM_P2
2022/03/03 00:02:53;;;;;;;93.30;36.00;;;-2.50;99.90;;;;;;10367369;28;20030;-84
2022/03/03 00:07:53;;;;;;;76.03;33.03;;;-2.50;99.90;;;;;;10366716;28;20513;-83
2022/03/03 00:12:54;;;;;;;76.77;33.60;;;-2.50;99.90;;;;;;10363287;28;20029;-84
2022/03/03 00:17:55;;;;;;;82.77;35.47;;;-2.50;99.90;;;;;;10349842;28;20026;-84
2022/03/03 00:22:56;;;;;;;76.43;33.77;;;-2.60;99.90;;;;;;10366000;28;20030;-84
2022/03/03 00:27:56;;;;;;;88.30;35.93;;;-2.70;99.90;;;;;;10366432;28;20033;-84
2022/03/03 00:32:57;;;;;;;77.67;32.23;;;-2.80;99.90;;;;;;10349005;28;20030;-84
2022/03/03 00:37:58;;;;;;;81.13;32.33;;;-2.80;99.90;;;;;;10366355;28;20060;-84
2022/03/03 00:42:58;;;;;;;69.33;28.87;;;-2.80;99.90;;;;;;10348887;28;20391;-84
2022/03/03 00:47:59;;;;;;;71.83;29.80;;;-2.80;99.90;;;;;;10348478;28;20026;-83
2022/03/03 00:53:01;;;;;;;70.40;30.40;;;-2.70;99.90;;;;;;10366604;28;20026;-84
2022/03/03 00:58:03;;;;;;;82.90;34.80;;;-2.80;99.90;;;;;;10367301;28;20048;-84
2022/03/03 01:03:03;;;;;;;86.83;35.00;;;-2.90;99.90;;;;;;10348668;28;20042;-84
2022/03/03 01:08:08;;;;;;;85.90;34.57;;;-2.90;99.90;;;;;;10365645;28;20117;-84
2022/03/03 01:13:09;;;;;;;113.47;44.67;;;-3.00;99.90;;;;;;10370586;28;20036;-84
2022/03/03 01:18:10;;;;;;;135.97;56.10;;;-3.00;99.90;;;;;;10355259;28;20693;-84
2022/03/03 01:23:11;;;;;;;152.50;56.87;;;-3.10;99.90;;;;;;10373584;28;20034;-84
2022/03/03 01:28:11;;;;;;;134.83;54.87;;;-3.10;99.90;;;;;;10354798;28;20038;-84
2022/03/03 01:33:12;;;;;;;116.80;47.30;;;-3.10;99.90;;;;;;10372619;28;20049;-84
2022/03/03 01:38:13;;;;;;;112.83;42.60;;;-3.10;99.90;;;;;;10354992;28;20018;-83
2022/03/03 01:43:14;;;;;;;88.60;39.07;;;-3.10;99.90;;;;;;10372526;28;20041;-83
2022/03/03 01:48:14;;;;;;;97.83;36.67;;;-3.10;99.90;;;;;;10372406;28;20473;-84
2022/03/03 01:53:15;;;;;;;93.63;39.83;;;-3.10;99.90;;;;;;10354729;28;20462;-84
2022/03/03 01:58:16;;;;;;;95.67;38.13;;;-3.10;99.90;;;;;;10371835;28;20069;-84
2022/03/03 02:03:17;;;;;;;72.20;30.57;;;-3.10;99.90;;;;;;10371670;28;20025;-84
2022/03/03 02:08:18;;;;;;;77.47;30.97;;;-3.10;99.90;;;;;;10370819;28;20586;-84
2022/03/03 02:13:19;;;;;;;69.87;31.00;;;-3.10;99.90;;;;;;10372373;28;20429;-84
2022/03/03 02:18:20;;;;;;;79.47;33.63;;;-3.20;99.90;;;;;;10352993;28;20033;-84
2022/03/03 02:23:21;;;;;;;66.07;29.13;;;-3.20;99.90;;;;;;10369565;28;20038;-85
2022/03/03 02:28:22;;;;;;;63.83;27.60;;;-3.20;99.90;;;;;;10353526;28;20113;-84
2022/03/03 02:33:22;;;;;;;63.67;27.83;;;-3.20;99.90;;;;;;10352737;28;20037;-84
2022/03/03 02:38:23;;;;;;;54.70;25.00;;;-3.20;99.90;;;;;;10370988;28;20033;-85
2022/03/03 02:43:23;;;;;;;57.07;23.17;;;-3.20;99.90;;;;;;10370042;28;20050;-84
2022/03/03 02:48:24;;;;;;;53.87;23.30;;;-3.20;99.90;;;;;;10369961;28;20045;-84
2022/03/03 02:53:25;;;;;;;51.73;22.57;;;-3.20;99.90;;;;;;10369352;28;20573;-84
2022/03/03 02:58:25;;;;;;;46.23;21.03;;;-3.30;99.90;;;;;;10369234;28;20029;-85
2022/03/03 03:03:27;;;;;;;43.63;19.70;;;-3.20;99.90;;;;;;10369305;28;20092;-83
2022/03/03 03:08:28;;;;;;;47.53;22.60;;;-3.20;99.90;;;;;;10369365;28;20117;-83
2022/03/03 03:13:29;;;;;;;51.80;21.57;;;-3.10;99.90;;;;;;10365815;28;20129;-84
2022/03/03 03:18:30;;;;;;;52.00;21.73;;;-3.20;99.90;;;;;;10350851;28;20026;-84
2022/03/03 03:23:30;;;;;;;47.63;20.00;;;-3.20;99.90;;;;;;10369421;28;20489;-84
2022/03/03 03:28:31;;;;;;;53.53;23.13;;;-3.20;99.90;;;;;;10368252;28;20534;-84
2022/03/03 03:33:32;;;;;;;44.87;20.00;;;-3.30;99.90;;;;;;10367594;28;20077;-83
2022/03/03 03:38:32;;;;;;;94.13;38.90;;;-3.40;99.90;;;;;;10368975;28;20033;-84
2022/03/03 03:43:33;;;;;;;92.73;37.70;;;-3.60;99.90;;;;;;10361246;28;20042;-84
2022/03/03 03:48:34;;;;;;;100.40;41.20;;;-3.70;99.90;;;;;;10367314;28;20029;-85
2022/03/03 03:53:34;;;;;;;102.50;44.83;;;-3.90;99.90;;;;;;10367208;28;20030;-84
2022/03/03 03:58:35;;;;;;;118.13;46.20;;;-4.00;99.90;;;;;;10350183;28;20120;-85
2022/03/03 04:03:36;;;;;;;103.13;41.07;;;-4.10;99.90;;;;;;10367012;28;20038;-84
2022/03/03 04:08:36;;;;;;;82.40;34.63;;;-4.20;99.90;;;;;;10349392;28;20474;-85
2022/03/03 04:13:37;;;;;;;88.33;36.73;;;-4.30;99.90;;;;;;10367078;28;20045;-87
2022/03/03 04:18:38;;;;;;;89.40;39.00;;;-4.30;99.90;;;;;;10349838;28;20045;-84
2022/03/03 04:23:38;;;;;;;96.30;40.73;;;-4.30;99.90;;;;;;10366540;28;20121;-87
2022/03/03 04:28:39;;;;;;;115.77;46.97;;;-4.30;99.90;;;;;;10367537;28;20044;-87
2022/03/03 04:33:41;;;;;;;109.57;48.43;;;-4.30;99.90;;;;;;10366603;28;20072;-88
2022/03/03 04:38:42;;;;;;;95.87;43.77;;;-4.30;99.90;;;;;;10348809;28;20092;-86
2022/03/03 04:43:43;;;;;;;106.23;44.17;;;-4.30;99.90;;;;;;10349233;28;20078;-86
2022/03/03 04:48:44;;;;;;;84.50;36.43;;;-4.40;99.90;;;;;;10370338;28;20120;-84
2022/03/03 04:53:44;;;;;;;90.17;38.27;;;-4.30;99.90;;;;;;10374690;28;20041;-86
2022/03/03 04:58:45;;;;;;;152.20;63.20;;;-4.40;99.90;;;;;;10373207;28;20037;-85
2022/03/03 05:03:46;;;;;;;211.80;91.60;;;-4.50;99.90;;;;;;10372306;28;20683;-84
2022/03/03 05:08:47;;;;;;;245.67;103.47;;;-4.60;99.90;;;;;;10355989;28;20033;-84
2022/03/03 05:13:48;;;;;;;231.60;101.20;;;-4.50;99.90;;;;;;10373247;28;20481;-85
2022/03/03 05:18:49;;;;;;;215.27;95.73;;;-4.50;99.90;;;;;;10353968;28;20040;-84
2022/03/03 05:23:50;;;;;;;179.23;66.73;;;-4.60;99.90;;;;;;10359505;28;20040;-85
2022/03/03 05:28:50;;;;;;;148.30;60.00;;;-4.70;99.90;;;;;;10338427;28;20064;-85
2022/03/03 05:33:51;;;;;;;167.93;62.33;;;-4.70;99.90;;;;;;10351618;28;20056;-85
2022/03/03 05:38:57;;;;;;;195.70;72.97;;;-4.70;99.90;;;;;;10357499;28;20326;-85
2022/03/03 05:43:58;;;;;;;;;;;-4.70;99.90;;;;;;10367340;28;20038;-86
2022/03/03 05:48:59;;;;;;;237.17;97.00;;;-4.80;99.90;;;;;;10369784;28;20577;-86
2022/03/03 05:54:00;;;;;;;322.77;136.40;;;-4.80;99.90;;;;;;10371013;28;20117;-85
2022/03/03 05:59:07;;;;;;;312.40;130.37;;;-4.70;99.90;;;;;;10371814;28;20347;-85
2022/03/03 06:04:10;;;;;;;253.67;105.77;;;-4.60;99.90;;;;;;10361030;28;20042;-86
2022/03/03 06:09:15;;;;;;;218.40;97.27;;;-4.60;99.90;;;;;;10372818;28;20022;-85
2022/03/03 06:14:23;;;;;;;227.65;98.85;;;-4.50;99.90;;;;;;10371826;28;20032;-85
2022/03/03 06:19:25;;;;;;;248.30;104.37;;;-4.50;99.90;;;;;;10354443;28;20108;-86
2022/03/03 06:24:25;;;;;;;253.13;111.57;;;-4.40;99.90;;;;;;10371639;28;20030;-86
2022/03/03 06:29:26;;;;;;;260.47;103.23;;;-4.30;99.90;;;;;;10372016;28;20429;-85
2022/03/03 06:34:26;;;;;;;246.63;99.03;;;-4.20;99.90;;;;;;10372023;28;20049;-85
2022/03/03 06:39:27;;;;;;;261.93;106.80;;;-4.00;99.90;;;;;;10370875;28;20092;-86
2022/03/03 06:44:28;;;;;;;249.80;104.80;;;-3.90;99.90;;;;;;10371159;28;20034;-85
2022/03/03 06:49:29;;;;;;;271.67;116.90;;;-3.70;99.90;;;;;;10370359;28;20474;-86
2022/03/03 06:54:32;;;;;;;242.97;111.07;;;-3.60;99.90;;;;;;10353289;28;20029;-85
2022/03/03 06:59:33;;;;;;;232.37;97.77;;;-3.40;99.90;;;;;;10370608;28;20034;-85
2022/03/03 07:04:34;;;;;;;217.53;98.80;;;-3.20;99.90;;;;;;10352147;28;20041;-86
2022/03/03 07:09:36;;;;;;;205.70;90.03;;;-2.90;99.90;;;;;;10351804;28;20033;-86
2022/03/03 07:14:37;;;;;;;259.23;103.23;;;-2.60;99.90;;;;;;10370463;28;20049;-85
2022/03/03 07:19:37;;;;;;;222.50;93.53;;;-2.30;99.90;;;;;;10369443;28;20385;-85
2022/03/03 07:24:45;;;;;;;367.93;138.67;;;-2.00;99.90;;;;;;10369480;28;20034;-85
2022/03/03 07:29:50;;;;;;;199.00;85.63;;;-1.70;99.90;;;;;;10369112;28;20057;-86
2022/03/03 07:35:01;;;;;;;187.50;86.10;;;-1.30;99.90;;;;;;10369337;28;20398;-85
2022/03/03 07:40:07;;;;;;;261.13;113.50;;;-0.90;99.90;;;;;;10351446;28;20037;-86
2022/03/03 07:45:08;;;;;;;188.55;86.85;;;-0.70;99.90;;;;;;10369974;28;20393;-85
2022/03/03 07:50:09;;;;;;;172.70;75.23;;;-0.50;99.90;;;;;;10368472;28;20026;-86
2022/03/03 07:55:10;;;;;;;209.10;90.07;;;-0.40;99.90;;;;;;10368784;28;20045;-85
2022/03/03 08:00:15;;;;;;;290.13;124.27;;;-0.20;99.90;;;;;;10367930;28;20029;-85
2022/03/03 08:05:16;;;;;;;224.07;93.13;;;0.20;99.90;;;;;;10367542;28;20038;-85
2022/03/03 08:10:17;;;;;;;231.60;96.07;;;0.50;99.90;;;;;;10367746;28;20378;-85
2022/03/03 08:15:18;;;;;;;350.70;163.23;;;0.70;99.90;;;;;;10367516;28;20034;-85
2022/03/03 08:20:20;;;;;;;149.33;71.77;;;0.90;99.90;;;;;;10366714;28;20430;-85
2022/03/03 08:25:22;;;;;;;139.80;63.73;;;1.10;99.90;;;;;;10367318;28;20052;-85
2022/03/03 08:30:24;;;;;;;138.03;62.80;;;1.30;99.90;;;;;;10367641;28;20488;-85
2022/03/03 08:35:36;;;;;;;170.70;87.53;;;1.50;99.90;;;;;;10368006;28;20184;-84
2022/03/03 08:40:37;;;;;;;125.43;60.43;;;1.80;99.90;;;;;;10367406;28;20038;-84
2022/03/03 08:45:38;;;;;;;126.30;56.10;;;2.30;99.90;;;;;;10367185;28;20052;-84
2022/03/03 08:50:41;;;;;;;91.10;42.20;;;2.60;99.80;;;;;;10367038;28;20524;-84
2022/03/03 08:55:41;;;;;;;82.33;40.00;;;2.70;96.10;;;;;;10367294;28;20034;-84
2022/03/03 09:00:43;;;;;;;101.13;48.23;;;2.90;92.20;;;;;;10349053;28;20429;-83
2022/03/03 09:05:43;;;;;;;120.60;55.60;;;3.20;92.50;;;;;;10366910;28;20069;-83
2022/03/03 09:10:44;;;;;;;59.13;28.50;;;3.60;91.90;;;;;;10367691;28;20125;-84
2022/03/03 09:15:45;;;;;;;69.57;34.17;;;3.80;84.80;;;;;;10366347;28;20041;-83
2022/03/03 09:20:46;;;;;;;47.00;25.50;;;3.90;83.10;;;;;;10366955;28;20552;-83
2022/03/03 09:25:47;;;;;;;51.90;25.63;;;4.00;81.00;;;;;;10348774;28;20128;-83
2022/03/03 09:30:49;;;;;;;57.13;25.90;;;4.10;79.80;;;;;;10366483;28;20036;-83
2022/03/03 09:35:51;;;;;;;54.97;27.47;;;4.20;80.20;;;;;;10373184;28;20050;-84
2022/03/03 09:40:51;;;;;;;51.73;26.17;;;4.50;78.70;;;;;;10373701;28;20426;-83
2022/03/03 09:45:52;;;;;;;50.30;26.57;;;4.60;75.70;;;;;;10373087;28;20034;-83
2022/03/03 09:50:53;;;;;;;49.60;26.67;;;4.60;74.70;;;;;;10373206;28;20038;-83
2022/03/03 09:55:54;;;;;;;48.83;26.43;;;4.70;75.10;;;;;;10373181;28;20101;-83
2022/03/03 10:00:56;;;;;;;51.87;28.00;;;4.80;72.30;;;;;;10355237;28;20493;-84
2022/03/03 10:06:00;;;;;;;56.90;30.80;;;4.90;74.10;;;;;;10354490;28;20037;-84
2022/03/03 10:11:03;;;;;;;46.53;24.40;;;5.00;73.40;;;;;;10354926;28;20112;-82
2022/03/03 10:16:04;;;;;;;51.23;25.67;;;5.00;73.20;;;;;;10371857;28;20021;-84
2022/03/03 10:21:04;;;;;;;46.17;24.27;;;5.30;72.20;;;;;;10372267;28;20030;-83
2022/03/03 10:26:07;;;;;;;47.73;24.37;;;5.30;69.20;;;;;;10371766;28;20034;-82
2022/03/03 10:31:10;;;;;;;48.13;26.00;;;5.50;71.80;;;;;;10371605;28;20076;-83
2022/03/03 10:36:22;;;;;;;43.93;23.43;;;5.60;69.40;;;;;;10355959;28;20074;-84
2022/03/03 10:41:40;;;;;;;44.47;24.50;;;5.60;69.10;;;;;;10330669;28;20023;-82
2022/03/03 10:47:07;;;;;;;43.67;22.77;;;5.70;69.00;;;;;;10312265;28;20045;-83
2022/03/03 10:52:20;;;;;;;47.77;26.13;;;6.00;67.20;;;;;;10328912;28;20029;-83
2022/03/03 10:57:46;;;;;;;49.50;26.13;;;6.20;68.60;;;;;;10329788;28;20018;-82
2022/03/03 11:02:50;;;;;;;43.85;24.23;;;6.20;67.30;;;;;;10329964;28;20117;-82
2022/03/03 11:07:53;;;;;;;46.73;23.33;;;6.20;64.50;;;;;;10329265;28;20038;-83
2022/03/03 11:12:54;;;;;;;35.93;18.97;;;6.20;65.70;;;;;;10329535;28;20494;-83
2022/03/03 11:17:55;;;;;;;39.67;22.07;;;6.30;63.10;;;;;;10329257;28;20401;-82
2022/03/03 11:22:57;;;;;;;39.27;20.53;;;6.50;64.50;;;;;;10329227;28;20117;-83
2022/03/03 11:28:07;;;;;;;36.40;18.57;;;6.70;64.90;;;;;;10328781;28;20056;-84
2022/03/03 11:33:23;;;;;;;36.33;18.80;;;7.00;62.90;;;;;;10328878;28;20042;-83
2022/03/03 11:38:26;;;;;;;40.13;19.25;;;7.10;60.40;;;;;;10329609;28;20050;-83
2022/03/03 11:43:28;;;;;;;33.03;17.73;;;7.10;60.70;;;;;;10328210;28;20479;-83
2022/03/03 11:48:39;;;;;;;30.73;17.20;;;7.10;59.30;;;;;;10328391;28;20026;-83
2022/03/03 11:53:49;;;;;;;28.80;15.57;;;7.10;60.60;;;;;;10328152;28;20077;-84
2022/03/03 11:59:10;;;;;;;31.23;16.90;;;7.00;58.50;;;;;;10327694;28;20501;-83
2022/03/03 12:04:14;;;;;;;32.30;16.97;;;7.50;59.80;;;;;;10327942;28;20551;-83
2022/03/03 12:09:16;;;;;;;30.33;16.63;;;7.80;58.40;;;;;;10326366;28;20034;-82
2022/03/03 12:14:32;;;;;;;34.53;18.27;;;7.80;57.70;;;;;;10327373;28;20026;-83
2022/03/03 12:19:35;;;;;;;30.37;16.80;;;7.90;55.80;;;;;;10327523;28;20085;-82
2022/03/03 12:24:38;;;;;;;28.20;15.63;;;8.00;55.10;;;;;;10327344;28;20117;-82
2022/03/03 12:29:48;;;;;;;33.20;18.13;;;7.70;55.00;;;;;;10326702;28;20049;-83
2022/03/03 12:34:56;;;;;;;43.63;24.20;;;7.60;56.10;;;;;;10327477;28;20061;-83
2022/03/03 12:57:51;;;;;;;42.85;25.60;;;6.70;57.80;;;;;;10324895;28;20031;-83
2022/03/03 13:02:58;;;;;;;35.30;17.40;;;6.60;56.70;;;;;;10326432;28;20026;-82
2022/03/03 13:08:00;;;;;;;28.80;15.37;;;6.70;58.50;;;;;;10329087;28;20077;-82
2022/03/03 13:13:01;;;;;;;26.20;14.60;;;7.20;57.70;;;;;;10334292;28;20030;-82
2022/03/03 13:18:11;;;;;;;29.47;14.87;;;7.40;56.40;;;;;;10333897;28;20110;-83
2022/03/03 13:23:13;;;;;;;24.23;13.43;;;7.30;53.10;;;;;;10333619;28;20482;-82
2022/03/03 13:28:25;;;;;;;30.80;16.03;;;7.10;52.80;;;;;;10333369;28;20068;-82
2022/03/03 13:33:44;;;;;;;23.67;13.80;;;7.10;53.90;;;;;;10333558;28;20030;-83
2022/03/03 13:38:45;;;;;;;26.47;13.47;;;7.00;53.30;;;;;;10351991;28;20120;-82
2022/03/03 13:43:46;;;;;;;19.83;10.80;;;7.00;53.70;;;;;;10373127;28;20410;-84
2022/03/03 13:48:47;;;;;;;21.17;10.10;;;7.00;52.90;;;;;;10372495;28;20042;-83
2022/03/03 13:53:59;;;;;;;20.67;10.03;;;7.00;51.60;;;;;;10372988;28;20550;-83
2022/03/03 13:59:11;;;;;;;20.80;11.03;;;7.20;51.20;;;;;;10372825;28;20105;-82
2022/03/03 14:04:14;;;;;;;26.67;13.00;;;6.90;51.00;;;;;;10354694;28;20136;-82
2022/03/03 14:09:27;;;;;;;26.73;14.00;;;6.50;52.60;;;;;;10371246;28;20405;-83
2022/03/03 14:14:28;;;;;;;27.73;13.43;;;6.30;53.40;;;;;;10371877;28;20045;-83
2022/03/03 14:19:29;;;;;;;22.07;11.20;;;6.10;52.10;;;;;;10343082;28;20030;-84
2022/03/03 14:24:30;;;;;;;25.87;13.27;;;5.80;53.40;;;;;;10330381;28;20049;-83
2022/03/03 14:29:31;;;;;;;30.13;13.57;;;5.40;53.80;;;;;;10328464;28;20387;-83
2022/03/03 14:34:32;;;;;;;29.17;14.37;;;5.20;55.00;;;;;;10328674;28;20057;-82
2022/03/03 14:39:33;;;;;;;28.43;14.33;;;5.10;56.30;;;;;;10323318;28;20068;-83
2022/03/03 14:44:34;;;;;;;32.83;17.43;;;5.30;56.70;;;;;;10369253;28;20042;-83
2022/03/03 14:49:34;;;;;;;27.87;14.40;;;5.40;56.70;;;;;;10390689;28;20109;-82
2022/03/03 14:54:35;;;;;;;32.20;16.27;;;5.30;57.10;;;;;;10369497;28;20072;-83
2022/03/03 14:59:36;;;;;;;30.17;16.77;;;5.50;57.90;;;;;;10362462;28;20032;-82
2022/03/03 15:04:40;;;;;;;38.27;19.13;;;5.40;58.00;;;;;;10365130;28;20041;-83
2022/03/03 15:09:40;;;;;;;40.53;20.37;;;5.40;58.20;;;;;;10374693;28;20030;-84
2022/03/03 15:14:41;;;;;;;37.40;19.87;;;5.50;58.30;;;;;;10357001;28;20026;-83
2022/03/03 15:19:43;;;;;;;30.87;16.63;;;5.50;58.10;;;;;;10327202;28;20418;-82
2022/03/03 15:24:44;;;;;;;29.03;15.83;;;5.30;58.80;;;;;;10345796;28;20042;-84
2022/03/03 15:29:45;;;;;;;33.80;17.57;;;5.30;59.30;;;;;;10367090;28;20370;-84
2022/03/03 15:40:06;;;;;;;34.83;17.53;;;5.10;60.00;;;;;;10329061;28;20117;-83
2022/03/03 15:45:07;;;;;;;33.67;17.47;;;4.90;60.10;;;;;;10335141;28;20448;-83
2022/03/03 15:50:08;;;;;;;37.87;18.60;;;4.80;60.80;;;;;;10353156;28;20018;-83
2022/03/03 15:55:10;;;;;;;34.40;17.40;;;4.60;61.50;;;;;;10366890;28;20018;-83
2022/03/03 16:00:11;;;;;;;39.47;19.63;;;4.50;61.80;;;;;;10356809;28;20136;-84
2022/03/03 16:05:12;;;;;;;35.17;17.10;;;4.40;62.50;;;;;;10365355;28;20018;-85
2022/03/03 16:10:13;;;;;;;39.53;19.47;;;4.20;63.00;;;;;;10352259;28;20092;-83
2022/03/03 16:15:16;;;;;;;37.53;18.87;;;4.00;63.70;;;;;;10349968;28;20105;-83
2022/03/03 16:20:17;;;;;;;40.23;20.27;;;3.80;64.10;;;;;;10355989;28;20105;-83
2022/03/03 16:25:18;;;;;;;34.30;17.83;;;3.60;64.70;;;;;;10356234;28;20038;-83
2022/03/03 16:30:19;;;;;;;43.67;20.40;;;3.50;65.30;;;;;;10338369;28;20022;-84
2022/03/03 16:35:21;;;;;;;36.23;17.60;;;3.30;65.90;;;;;;10348420;28;20057;-84
2022/03/03 16:40:22;;;;;;;39.50;17.97;;;3.10;66.40;;;;;;10341953;28;20030;-84
2022/03/03 16:45:23;;;;;;;39.03;18.43;;;2.90;67.00;;;;;;10365665;28;20402;-85
2022/03/03 16:50:25;;;;;;;39.97;19.47;;;2.80;67.50;;;;;;10369793;28;20030;-83
2022/03/03 16:55:25;;;;;;;39.43;18.43;;;2.60;67.90;;;;;;10356614;28;20457;-85
2022/03/03 17:00:27;;;;;;;44.03;20.10;;;2.40;68.50;;;;;;10377232;28;20036;-83
2022/03/03 17:05:27;;;;;;;42.77;20.13;;;2.30;69.10;;;;;;10379693;28;20137;-84
2022/03/03 17:10:28;;;;;;;41.10;19.67;;;2.30;69.50;;;;;;10372278;28;20026;-85
2022/03/03 17:15:29;;;;;;;43.00;20.23;;;2.20;69.90;;;;;;10372371;28;20033;-82
2022/03/03 17:20:30;;;;;;;44.17;19.83;;;2.10;70.20;;;;;;10370097;28;20045;-83
2022/03/03 17:25:31;;;;;;;42.60;20.37;;;2.00;70.50;;;;;;10352990;28;20497;-82
2022/03/03 17:30:32;;;;;;;40.83;20.20;;;1.90;71.10;;;;;;10370791;28;20029;-83
2022/03/03 17:35:36;;;;;;;48.50;22.20;;;1.70;71.70;;;;;;10372096;28;20053;-84
2022/03/03 17:40:36;;;;;;;46.93;22.23;;;1.60;72.70;;;;;;10353379;28;20034;-84
2022/03/03 17:45:37;;;;;;;56.67;24.57;;;1.60;72.40;;;;;;10365288;28;20046;-84
2022/03/03 17:50:39;;;;;;;55.87;24.90;;;1.60;72.80;;;;;;10365516;28;20440;-84
2022/03/03 17:55:40;;;;;;;59.70;26.20;;;1.40;74.50;;;;;;10371503;28;20092;-83
2022/03/03 18:00:41;;;;;;;64.07;27.83;;;1.50;74.30;;;;;;10353834;28;20022;-84
2022/03/03 18:05:45;;;;;;;69.60;30.73;;;1.50;74.40;;;;;;10370529;28;20046;-83
2022/03/03 18:10:46;;;;;;;69.00;30.93;;;1.60;74.80;;;;;;10365130;28;20125;-85
2022/03/03 18:15:46;;;;;;;69.43;31.83;;;1.60;76.70;;;;;;10356011;28;20496;-83
2022/03/03 18:20:48;;;;;;;80.33;36.07;;;1.60;79.00;;;;;;10364042;28;20034;-84
2022/03/03 18:25:49;;;;;;;85.47;38.83;;;1.50;79.70;;;;;;10351208;28;20441;-84
2022/03/03 18:30:50;;;;;;;95.03;41.97;;;1.30;82.90;;;;;;10356573;28;21837;-83
2022/03/03 18:35:52;;;;;;;96.17;42.73;;;1.10;87.30;;;;;;10361919;28;20054;-84
2022/03/03 18:40:54;;;;;;;93.23;43.73;;;1.00;90.40;;;;;;10349278;28;20117;-86
2022/03/03 18:45:55;;;;;;;111.13;48.07;;;0.80;99.90;;;;;;10363647;28;20076;-83
2022/03/03 18:50:56;;;;;;;113.17;50.50;;;0.70;99.90;;;;;;10353626;28;20377;-84
2022/03/03 18:55:57;;;;;;;108.27;48.17;;;0.60;99.90;;;;;;10343715;28;20021;-85
2022/03/03 19:00:57;;;;;;;119.87;50.00;;;0.50;99.90;;;;;;10365184;28;20466;-85
2022/03/03 19:05:58;;;;;;;120.63;49.33;;;0.40;99.90;;;;;;10362668;28;20046;-83
2022/03/03 19:10:59;;;;;;;115.00;50.03;;;0.30;99.90;;;;;;10375178;28;20029;-85
2022/03/03 19:16:00;;;;;;;123.17;55.40;;;0.30;99.90;;;;;;10365981;28;20470;-86
2022/03/03 19:21:01;;;;;;;114.60;49.03;;;0.20;99.90;;;;;;10331872;28;20488;-87
2022/03/03 19:26:02;;;;;;;109.40;48.87;;;0.10;99.90;;;;;;10354899;28;20045;-85
2022/03/03 19:31:03;;;;;;;112.40;51.27;;;0.00;99.90;;;;;;10344623;28;20013;-86
2022/03/03 19:36:04;;;;;;;113.33;47.37;;;-0.10;99.90;;;;;;10361115;28;20058;-86
2022/03/03 19:41:05;;;;;;;114.17;47.67;;;-0.20;99.90;;;;;;10347010;28;20050;-87
2022/03/03 19:46:06;;;;;;;117.50;47.17;;;-0.30;99.90;;;;;;10366445;28;20076;-85
2022/03/03 19:51:07;;;;;;;115.33;48.73;;;-0.30;99.90;;;;;;10365032;28;20030;-87
2022/03/03 19:56:08;;;;;;;117.57;50.60;;;-0.40;99.90;;;;;;10365338;28;20527;-86
2022/03/03 20:01:08;;;;;;;106.80;45.47;;;-0.30;99.90;;;;;;10361326;28;20025;-85
2022/03/03 20:06:09;;;;;;;120.73;49.93;;;-0.30;99.90;;;;;;10364157;28;20044;-85
2022/03/03 20:11:10;;;;;;;118.70;49.80;;;-0.30;99.90;;;;;;10360467;28;20087;-86
2022/03/03 20:16:12;;;;;;;112.27;48.47;;;-0.30;99.90;;;;;;10355834;28;20813;-86
2022/03/03 20:21:14;;;;;;;120.23;50.43;;;-0.20;99.90;;;;;;10363250;28;20556;-86
2022/03/03 20:26:15;;;;;;;117.10;49.67;;;-0.20;99.90;;;;;;10365867;28;20069;-86
2022/03/03 20:31:17;;;;;;;114.47;49.63;;;-0.20;99.90;;;;;;10362138;28;20025;-86
2022/03/03 20:36:18;;;;;;;103.63;46.57;;;-0.10;99.90;;;;;;10363284;28;20073;-85
2022/03/03 20:41:19;;;;;;;107.27;47.37;;;0.00;99.90;;;;;;10366102;28;20441;-85
2022/03/03 20:46:23;;;;;;;119.17;51.23;;;0.10;99.90;;;;;;10366883;28;20394;-85
2022/03/03 20:51:23;;;;;;;105.00;45.07;;;0.20;99.90;;;;;;10364044;28;20029;-85
2022/03/03 20:56:24;;;;;;;103.13;45.57;;;0.20;99.90;;;;;;10355875;28;20037;-85
2022/03/03 21:01:25;;;;;;;101.53;45.10;;;0.30;99.90;;;;;;10340788;28;20030;-85
2022/03/03 21:06:27;;;;;;;107.53;46.97;;;0.30;99.90;;;;;;10362701;28;20441;-86
2022/03/03 21:11:28;;;;;;;100.23;45.00;;;0.30;99.90;;;;;;10356141;28;20029;-86
2022/03/03 21:16:29;;;;;;;110.77;47.17;;;0.40;99.90;;;;;;10333602;28;20030;-85
2022/03/03 21:21:30;;;;;;;97.00;41.53;;;0.40;99.90;;;;;;10344650;28;20572;-85
2022/03/03 21:26:31;;;;;;;97.73;41.87;;;0.40;99.90;;;;;;10329645;28;20038;-85
2022/03/03 21:31:32;;;;;;;101.90;44.53;;;0.50;99.90;;;;;;10340716;28;20749;-85
2022/03/03 21:36:33;;;;;;;99.27;43.50;;;0.50;99.90;;;;;;10339259;28;20099;-85
2022/03/03 21:41:34;;;;;;;102.37;41.77;;;0.50;99.90;;;;;;10349817;28;20030;-85
2022/03/03 21:46:35;;;;;;;98.50;42.20;;;0.60;99.90;;;;;;10350195;28;20505;-85
2022/03/03 21:51:36;;;;;;;107.53;44.97;;;0.60;99.90;;;;;;10353330;28;20124;-85
2022/03/03 21:56:38;;;;;;;97.60;41.80;;;0.60;99.90;;;;;;10343878;28;20096;-86
2022/03/03 22:01:39;;;;;;;98.93;42.80;;;0.70;99.90;;;;;;10347930;28;20025;-85
2022/03/03 22:06:39;;;;;;;97.10;41.93;;;0.60;99.90;;;;;;10343154;28;20038;-85
2022/03/03 22:11:41;;;;;;;94.63;41.60;;;0.60;99.90;;;;;;10349583;28;20080;-85
2022/03/03 22:16:42;;;;;;;99.43;39.20;;;0.60;99.90;;;;;;10346652;28;20033;-85
2022/03/03 22:21:43;;;;;;;78.13;33.33;;;0.60;99.90;;;;;;10340257;28;20019;-85
2022/03/03 22:26:44;;;;;;;68.00;29.03;;;0.50;99.90;;;;;;10356327;28;20030;-85
2022/03/03 22:31:46;;;;;;;70.53;30.53;;;0.30;99.90;;;;;;10354617;28;20040;-85
2022/03/03 22:36:47;;;;;;;69.97;29.93;;;0.30;99.90;;;;;;10361010;28;20145;-85
2022/03/03 22:41:47;;;;;;;68.87;28.97;;;0.30;99.90;;;;;;10370392;28;20133;-85
2022/03/03 22:46:48;;;;;;;68.43;29.47;;;0.20;99.90;;;;;;10369471;28;20041;-85
2022/03/03 22:57:16;;;;;;;63.13;27.70;;;0.20;99.90;;;;;;10369778;28;20042;-86
2022/03/03 23:02:17;;;;;;;64.43;27.83;;;0.20;99.90;;;;;;10369223;28;20040;-85
2022/03/03 23:07:18;;;;;;;66.63;26.87;;;0.20;99.90;;;;;;10352562;28;20040;-86
2022/03/03 23:12:24;;;;;;;63.60;26.43;;;0.20;99.90;;;;;;10369660;28;20033;-87
2022/03/03 23:17:25;;;;;;;;;;;0.20;99.90;;;;;;10369555;28;20115;-86
2022/03/03 23:22:26;;;;;;;53.50;23.00;;;0.10;99.90;;;;;;10369800;28;20015;-87
2022/03/03 23:27:27;;;;;;;56.83;24.87;;;0.00;99.90;;;;;;10368629;28;20562;-86
2022/03/03 23:32:28;;;;;;;53.23;23.40;;;0.00;99.90;;;;;;10368811;28;20056;-86
2022/03/03 23:37:30;;;;;;;50.03;23.10;;;0.10;99.90;;;;;;10368656;28;20045;-87
2022/03/03 23:42:31;;;;;;;49.13;22.10;;;0.10;99.90;;;;;;10367240;28;20436;-86
2022/03/03 23:47:31;;;;;;;56.57;25.53;;;0.20;99.90;;;;;;10367242;28;20042;-87
2022/03/03 23:52:32;;;;;;;52.47;22.23;;;0.10;99.90;;;;;;10349124;28;20037;-86
2022/03/03 23:57:33;;;;;;;53.63;21.50;;;0.10;99.90;;;;;;10367671;28;20032;-86
